Terminal Aerodrome Forecast
Issued by NWS

Home | Current Version | Previous Version | Text Only | Print | Product List | Glossary On
Versions: 1 2 3 4 5 6 7 8 9 10 11 12 13 14 15 16 17 18 19 20 21 22 23
000
FTUS43 KLSX 262300
TAFCPS
TAF
KCPS 262320Z 2700/2724 VRB04KT P6SM SCT035
     FM270100 29007KT P6SM SCT035
     FM270500 32010KT P6SM BKN025
     FM271100 34009KT P6SM BKN015
     FM271700 35008KT P6SM BKN030=

USA.gov is the U.S. government's official web portal to all federal, state and local government web resources and services.